sensor_id;sensor_type;location;lat;lon;timestamp;P1;durP1;ratioP1;P2;durP2;ratioP2
1759;SDS011;877;46.266;20.062;2022-11-12T00:02:13;41.00;;;23.33;;
1759;SDS011;877;46.266;20.062;2022-11-12T00:04:45;40.75;;;23.27;;
1759;SDS011;877;46.266;20.062;2022-11-12T00:07:13;39.63;;;22.73;;
1759;SDS011;877;46.266;20.062;2022-11-12T00:09:46;38.27;;;22.53;;
1759;SDS011;877;46.266;20.062;2022-11-12T00:12:20;33.47;;;21.73;;
1759;SDS011;877;46.266;20.062;2022-11-12T00:17:17;33.07;;;20.20;;
1759;SDS011;877;46.266;20.062;2022-11-12T00:19:47;28.83;;;21.33;;
1759;SDS011;877;46.266;20.062;2022-11-12T00:22:20;33.05;;;21.80;;
1759;SDS011;877;46.266;20.062;2022-11-12T00:27:36;40.03;;;22.15;;
1759;SDS011;877;46.266;20.062;2022-11-12T00:35:16;126.45;;;47.95;;
1759;SDS011;877;46.266;20.062;2022-11-12T00:37:44;130.75;;;49.83;;
1759;SDS011;877;46.266;20.062;2022-11-12T00:40:20;66.80;;;33.22;;
1759;SDS011;877;46.266;20.062;2022-11-12T00:42:51;92.70;;;38.28;;
1759;SDS011;877;46.266;20.062;2022-11-12T00:50:19;43.00;;;23.70;;
1759;SDS011;877;46.266;20.062;2022-11-12T00:52:45;37.20;;;22.47;;
1759;SDS011;877;46.266;20.062;2022-11-12T00:55:11;47.17;;;26.40;;
1759;SDS011;877;46.266;20.062;2022-11-12T00:57:39;44.45;;;27.95;;
1759;SDS011;877;46.266;20.062;2022-11-12T01:00:21;38.25;;;24.30;;
1759;SDS011;877;46.266;20.062;2022-11-12T01:05:34;33.88;;;21.35;;
1759;SDS011;877;46.266;20.062;2022-11-12T01:10:51;34.92;;;22.70;;
1759;SDS011;877;46.266;20.062;2022-11-12T01:13:18;34.13;;;20.83;;
1759;SDS011;877;46.266;20.062;2022-11-12T01:15:46;31.40;;;21.00;;
1759;SDS011;877;46.266;20.062;2022-11-12T01:18:21;34.95;;;21.42;;
1759;SDS011;877;46.266;20.062;2022-11-12T01:20:48;32.70;;;19.65;;
1759;SDS011;877;46.266;20.062;2022-11-12T01:23:26;31.67;;;20.10;;
1759;SDS011;877;46.266;20.062;2022-11-12T01:25:53;37.10;;;20.10;;
1759;SDS011;877;46.266;20.062;2022-11-12T01:31:16;28.77;;;19.90;;
1759;SDS011;877;46.266;20.062;2022-11-12T01:33:45;27.52;;;19.60;;
1759;SDS011;877;46.266;20.062;2022-11-12T01:36:12;30.47;;;19.80;;
1759;SDS011;877;46.266;20.062;2022-11-12T01:38:46;29.67;;;19.48;;
1759;SDS011;877;46.266;20.062;2022-11-12T01:41:33;26.70;;;18.98;;
1759;SDS011;877;46.266;20.062;2022-11-12T01:47:03;28.90;;;19.83;;
1759;SDS011;877;46.266;20.062;2022-11-12T01:49:41;35.60;;;21.80;;
1759;SDS011;877;46.266;20.062;2022-11-12T01:52:20;26.40;;;19.08;;
1759;SDS011;877;46.266;20.062;2022-11-12T01:55:00;33.22;;;19.83;;
1759;SDS011;877;46.266;20.062;2022-11-12T01:57:36;37.53;;;21.60;;
1759;SDS011;877;46.266;20.062;2022-11-12T02:02:53;35.25;;;22.38;;
1759;SDS011;877;46.266;20.062;2022-11-12T02:05:28;34.27;;;22.70;;
1759;SDS011;877;46.266;20.062;2022-11-12T02:07:59;34.70;;;19.97;;
1759;SDS011;877;46.266;20.062;2022-11-12T02:10:33;28.13;;;19.33;;
1759;SDS011;877;46.266;20.062;2022-11-12T02:13:09;29.00;;;20.70;;
1759;SDS011;877;46.266;20.062;2022-11-12T02:16:04;36.17;;;20.70;;
1759;SDS011;877;46.266;20.062;2022-11-12T02:18:33;29.48;;;20.30;;
1759;SDS011;877;46.266;20.062;2022-11-12T02:21:18;32.38;;;22.05;;
1759;SDS011;877;46.266;20.062;2022-11-12T02:26:19;31.52;;;20.10;;
1759;SDS011;877;46.266;20.062;2022-11-12T02:31:48;31.35;;;20.48;;
1759;SDS011;877;46.266;20.062;2022-11-12T02:34:16;33.63;;;19.13;;
1759;SDS011;877;46.266;20.062;2022-11-12T02:39:15;33.17;;;21.73;;
1759;SDS011;877;46.266;20.062;2022-11-12T02:41:50;32.22;;;20.70;;
1759;SDS011;877;46.266;20.062;2022-11-12T02:47:18;32.20;;;19.90;;
1759;SDS011;877;46.266;20.062;2022-11-12T02:49:54;31.13;;;20.65;;
1759;SDS011;877;46.266;20.062;2022-11-12T02:52:20;35.80;;;20.63;;
1759;SDS011;877;46.266;20.062;2022-11-12T02:57:34;37.28;;;25.05;;
1759;SDS011;877;46.266;20.062;2022-11-12T03:02:58;37.75;;;24.38;;
1759;SDS011;877;46.266;20.062;2022-11-12T03:08:21;44.13;;;25.20;;
1759;SDS011;877;46.266;20.062;2022-11-12T03:10:49;41.55;;;25.40;;
1759;SDS011;877;46.266;20.062;2022-11-12T03:13:17;44.00;;;26.93;;
1759;SDS011;877;46.266;20.062;2022-11-12T03:18:35;38.10;;;23.95;;
1759;SDS011;877;46.266;20.062;2022-11-12T03:21:02;35.80;;;23.83;;
1759;SDS011;877;46.266;20.062;2022-11-12T03:23:29;35.53;;;24.67;;
1759;SDS011;877;46.266;20.062;2022-11-12T03:28:28;43.97;;;27.25;;
1759;SDS011;877;46.266;20.062;2022-11-12T03:33:38;41.53;;;27.23;;
1759;SDS011;877;46.266;20.062;2022-11-12T03:36:15;38.75;;;23.77;;
1759;SDS011;877;46.266;20.062;2022-11-12T03:38:49;39.85;;;22.77;;
1759;SDS011;877;46.266;20.062;2022-11-12T03:41:16;41.10;;;23.23;;
1759;SDS011;877;46.266;20.062;2022-11-12T03:43:44;35.53;;;22.75;;
1759;SDS011;877;46.266;20.062;2022-11-12T03:46:12;35.33;;;23.40;;
1759;SDS011;877;46.266;20.062;2022-11-12T03:48:40;32.30;;;23.13;;
1759;SDS011;877;46.266;20.062;2022-11-12T03:53:51;31.60;;;22.10;;
1759;SDS011;877;46.266;20.062;2022-11-12T03:56:18;35.50;;;23.70;;
1759;SDS011;877;46.266;20.062;2022-11-12T04:04:30;35.63;;;23.60;;
1759;SDS011;877;46.266;20.062;2022-11-12T04:10:18;32.30;;;20.67;;
1759;SDS011;877;46.266;20.062;2022-11-12T04:18:44;39.05;;;22.35;;
1759;SDS011;877;46.266;20.062;2022-11-12T04:21:42;32.50;;;20.10;;
1759;SDS011;877;46.266;20.062;2022-11-12T04:27:30;32.67;;;19.35;;
1759;SDS011;877;46.266;20.062;2022-11-12T04:35:30;33.08;;;22.02;;
1759;SDS011;877;46.266;20.062;2022-11-12T04:37:58;33.83;;;20.70;;
1759;SDS011;877;46.266;20.062;2022-11-12T04:40:31;32.65;;;20.95;;
1759;SDS011;877;46.266;20.062;2022-11-12T04:43:16;38.50;;;22.55;;
1759;SDS011;877;46.266;20.062;2022-11-12T04:46:03;35.25;;;23.55;;
1759;SDS011;877;46.266;20.062;2022-11-12T04:48:31;34.90;;;23.00;;
1759;SDS011;877;46.266;20.062;2022-11-12T04:51:04;34.63;;;24.23;;
1759;SDS011;877;46.266;20.062;2022-11-12T04:53:53;42.92;;;24.38;;
1759;SDS011;877;46.266;20.062;2022-11-12T04:56:20;34.67;;;23.77;;
1759;SDS011;877;46.266;20.062;2022-11-12T04:58:47;33.50;;;22.80;;
1759;SDS011;877;46.266;20.062;2022-11-12T05:01:19;38.08;;;24.23;;
1759;SDS011;877;46.266;20.062;2022-11-12T05:03:46;37.80;;;24.65;;
1759;SDS011;877;46.266;20.062;2022-11-12T05:12:05;37.60;;;23.92;;
1759;SDS011;877;46.266;20.062;2022-11-12T05:17:07;38.75;;;24.85;;
1759;SDS011;877;46.266;20.062;2022-11-12T05:19:40;38.67;;;23.23;;
1759;SDS011;877;46.266;20.062;2022-11-12T05:22:08;42.23;;;23.30;;
1759;SDS011;877;46.266;20.062;2022-11-12T05:24:38;36.15;;;24.83;;
1759;SDS011;877;46.266;20.062;2022-11-12T05:27:10;33.60;;;22.10;;
1759;SDS011;877;46.266;20.062;2022-11-12T05:32:27;43.90;;;22.40;;
1759;SDS011;877;46.266;20.062;2022-11-12T05:34:55;32.53;;;21.77;;
1759;SDS011;877;46.266;20.062;2022-11-12T05:37:40;34.92;;;21.40;;
1759;SDS011;877;46.266;20.062;2022-11-12T05:40:06;34.15;;;21.73;;
1759;SDS011;877;46.266;20.062;2022-11-12T05:42:33;29.83;;;21.65;;
1759;SDS011;877;46.266;20.062;2022-11-12T05:44:59;35.00;;;21.23;;
1759;SDS011;877;46.266;20.062;2022-11-12T05:47:26;32.65;;;21.27;;
1759;SDS011;877;46.266;20.062;2022-11-12T05:49:56;31.13;;;22.05;;
1759;SDS011;877;46.266;20.062;2022-11-12T05:52:25;36.35;;;23.70;;
1759;SDS011;877;46.266;20.062;2022-11-12T05:57:22;34.63;;;21.85;;
1759;SDS011;877;46.266;20.062;2022-11-12T05:59:58;35.40;;;22.88;;
1759;SDS011;877;46.266;20.062;2022-11-12T06:02:26;32.85;;;21.42;;
1759;SDS011;877;46.266;20.062;2022-11-12T06:04:55;33.75;;;21.98;;
1759;SDS011;877;46.266;20.062;2022-11-12T06:07:22;35.70;;;22.00;;
1759;SDS011;877;46.266;20.062;2022-11-12T06:09:51;36.42;;;22.15;;
1759;SDS011;877;46.266;20.062;2022-11-12T06:12:17;32.83;;;20.70;;
1759;SDS011;877;46.266;20.062;2022-11-12T06:14:50;34.63;;;21.90;;
1759;SDS011;877;46.266;20.062;2022-11-12T06:22:16;35.03;;;22.25;;
1759;SDS011;877;46.266;20.062;2022-11-12T06:24:46;36.35;;;23.52;;
1759;SDS011;877;46.266;20.062;2022-11-12T06:27:13;39.60;;;23.00;;
1759;SDS011;877;46.266;20.062;2022-11-12T06:29:39;32.55;;;20.67;;
1759;SDS011;877;46.266;20.062;2022-11-12T06:32:13;39.38;;;23.92;;
1759;SDS011;877;46.266;20.062;2022-11-12T06:34:39;36.30;;;20.70;;
1759;SDS011;877;46.266;20.062;2022-11-12T06:39:35;34.90;;;23.10;;
1759;SDS011;877;46.266;20.062;2022-11-12T06:44:46;39.25;;;24.20;;
1759;SDS011;877;46.266;20.062;2022-11-12T06:47:13;32.35;;;21.90;;
1759;SDS011;877;46.266;20.062;2022-11-12T06:52:10;39.58;;;27.48;;
1759;SDS011;877;46.266;20.062;2022-11-12T06:54:36;36.65;;;23.75;;
1759;SDS011;877;46.266;20.062;2022-11-12T06:57:19;37.47;;;23.48;;
1759;SDS011;877;46.266;20.062;2022-11-12T07:02:22;33.35;;;21.63;;
1759;SDS011;877;46.266;20.062;2022-11-12T07:04:49;36.35;;;24.23;;
1759;SDS011;877;46.266;20.062;2022-11-12T07:07:19;35.00;;;24.23;;
1759;SDS011;877;46.266;20.062;2022-11-12T07:12:33;37.20;;;22.45;;
1759;SDS011;877;46.266;20.062;2022-11-12T07:14:59;33.75;;;19.88;;
1759;SDS011;877;46.266;20.062;2022-11-12T07:17:32;37.83;;;22.17;;
1759;SDS011;877;46.266;20.062;2022-11-12T07:20:00;39.15;;;21.95;;
1759;SDS011;877;46.266;20.062;2022-11-12T07:22:37;37.50;;;23.80;;
1759;SDS011;877;46.266;20.062;2022-11-12T07:25:04;38.67;;;23.30;;
1759;SDS011;877;46.266;20.062;2022-11-12T07:27:31;39.67;;;22.07;;
1759;SDS011;877;46.266;20.062;2022-11-12T07:29:58;38.17;;;24.30;;
1759;SDS011;877;46.266;20.062;2022-11-12T07:32:25;36.17;;;23.83;;
1759;SDS011;877;46.266;20.062;2022-11-12T07:35:00;42.35;;;24.27;;
1759;SDS011;877;46.266;20.062;2022-11-12T07:37:30;34.75;;;22.20;;
1759;SDS011;877;46.266;20.062;2022-11-12T07:40:06;32.10;;;22.83;;
1759;SDS011;877;46.266;20.062;2022-11-12T07:42:37;34.05;;;22.40;;
1759;SDS011;877;46.266;20.062;2022-11-12T07:45:12;35.22;;;23.92;;
1759;SDS011;877;46.266;20.062;2022-11-12T07:52:38;35.97;;;25.30;;
1759;SDS011;877;46.266;20.062;2022-11-12T07:55:04;38.95;;;26.48;;
1759;SDS011;877;46.266;20.062;2022-11-12T07:57:31;44.05;;;26.83;;
1759;SDS011;877;46.266;20.062;2022-11-12T08:00:00;41.05;;;27.15;;
1759;SDS011;877;46.266;20.062;2022-11-12T08:02:28;39.50;;;25.37;;
1759;SDS011;877;46.266;20.062;2022-11-12T08:04:56;44.10;;;25.65;;
1759;SDS011;877;46.266;20.062;2022-11-12T08:07:22;31.67;;;21.35;;
1759;SDS011;877;46.266;20.062;2022-11-12T08:09:57;37.75;;;22.45;;
1759;SDS011;877;46.266;20.062;2022-11-12T08:12:25;34.90;;;22.33;;
1759;SDS011;877;46.266;20.062;2022-11-12T08:14:51;43.80;;;25.00;;
1759;SDS011;877;46.266;20.062;2022-11-12T08:17:23;37.50;;;23.70;;
1759;SDS011;877;46.266;20.062;2022-11-12T08:19:57;48.17;;;27.60;;
1759;SDS011;877;46.266;20.062;2022-11-12T08:22:28;42.63;;;24.97;;
1759;SDS011;877;46.266;20.062;2022-11-12T08:24:58;35.97;;;24.50;;
1759;SDS011;877;46.266;20.062;2022-11-12T08:27:26;37.70;;;23.60;;
1759;SDS011;877;46.266;20.062;2022-11-12T08:29:58;48.57;;;26.87;;
1759;SDS011;877;46.266;20.062;2022-11-12T08:32:25;43.42;;;25.80;;
1759;SDS011;877;46.266;20.062;2022-11-12T08:34:52;48.30;;;26.60;;
1759;SDS011;877;46.266;20.062;2022-11-12T08:37:26;40.13;;;25.67;;
1759;SDS011;877;46.266;20.062;2022-11-12T08:39:58;45.70;;;26.20;;
1759;SDS011;877;46.266;20.062;2022-11-12T08:42:34;42.60;;;25.70;;
1759;SDS011;877;46.266;20.062;2022-11-12T08:53:31;101.90;;;60.77;;
1759;SDS011;877;46.266;20.062;2022-11-12T08:56:05;43.33;;;26.63;;
1759;SDS011;877;46.266;20.062;2022-11-12T08:58:39;42.57;;;24.77;;
1759;SDS011;877;46.266;20.062;2022-11-12T09:04:02;40.23;;;24.63;;
1759;SDS011;877;46.266;20.062;2022-11-12T09:06:35;34.90;;;21.33;;
1759;SDS011;877;46.266;20.062;2022-11-12T09:11:39;36.70;;;22.17;;
1759;SDS011;877;46.266;20.062;2022-11-12T09:14:15;40.13;;;23.47;;
1759;SDS011;877;46.266;20.062;2022-11-12T09:19:18;56.33;;;34.00;;
1759;SDS011;877;46.266;20.062;2022-11-12T09:21:46;61.47;;;37.43;;
1759;SDS011;877;46.266;20.062;2022-11-12T09:24:14;43.60;;;24.30;;
1759;SDS011;877;46.266;20.062;2022-11-12T09:26:44;41.20;;;21.37;;
1759;SDS011;877;46.266;20.062;2022-11-12T09:29:22;30.30;;;17.97;;
1759;SDS011;877;46.266;20.062;2022-11-12T09:34:19;28.13;;;17.27;;
1759;SDS011;877;46.266;20.062;2022-11-12T09:36:46;37.67;;;19.50;;
1759;SDS011;877;46.266;20.062;2022-11-12T09:39:14;33.77;;;19.20;;
1759;SDS011;877;46.266;20.062;2022-11-12T09:41:41;30.13;;;18.03;;
1759;SDS011;877;46.266;20.062;2022-11-12T09:44:10;32.27;;;19.50;;
1759;SDS011;877;46.266;20.062;2022-11-12T09:46:38;30.57;;;18.23;;
1759;SDS011;877;46.266;20.062;2022-11-12T09:51:55;30.30;;;16.87;;
1759;SDS011;877;46.266;20.062;2022-11-12T09:54:38;27.83;;;18.60;;
1759;SDS011;877;46.266;20.062;2022-11-12T09:57:09;35.67;;;19.00;;
1759;SDS011;877;46.266;20.062;2022-11-12T09:59:40;35.37;;;19.20;;
1759;SDS011;877;46.266;20.062;2022-11-12T10:24:22;28.20;;;16.10;;
1759;SDS011;877;46.266;20.062;2022-11-12T10:38:01;26.93;;;16.00;;
1759;SDS011;877;46.266;20.062;2022-11-12T10:40:39;28.93;;;17.50;;
1759;SDS011;877;46.266;20.062;2022-11-12T10:45:48;27.63;;;17.20;;
1759;SDS011;877;46.266;20.062;2022-11-12T10:51:18;20.57;;;14.73;;
1759;SDS011;877;46.266;20.062;2022-11-12T10:53:46;28.20;;;16.23;;
1759;SDS011;877;46.266;20.062;2022-11-12T11:04:36;23.10;;;13.90;;
1759;SDS011;877;46.266;20.062;2022-11-12T11:09:59;21.80;;;13.70;;
1759;SDS011;877;46.266;20.062;2022-11-12T11:15:21;22.43;;;11.90;;
1759;SDS011;877;46.266;20.062;2022-11-12T11:17:48;25.77;;;14.40;;
1759;SDS011;877;46.266;20.062;2022-11-12T11:20:23;28.50;;;14.43;;
1759;SDS011;877;46.266;20.062;2022-11-12T11:25:46;20.13;;;12.13;;
1759;SDS011;877;46.266;20.062;2022-11-12T11:31:17;21.73;;;13.53;;
1759;SDS011;877;46.266;20.062;2022-11-12T11:37:25;34.17;;;13.83;;
1759;SDS011;877;46.266;20.062;2022-11-12T11:50:52;24.60;;;15.40;;
1759;SDS011;877;46.266;20.062;2022-11-12T11:53:28;23.37;;;11.17;;
1759;SDS011;877;46.266;20.062;2022-11-12T11:55:58;20.87;;;13.50;;
1759;SDS011;877;46.266;20.062;2022-11-12T12:04:16;21.37;;;13.50;;
1759;SDS011;877;46.266;20.062;2022-11-12T12:09:37;17.20;;;11.20;;
1759;SDS011;877;46.266;20.062;2022-11-12T12:20:23;14.83;;;8.63;;
1759;SDS011;877;46.266;20.062;2022-11-12T12:23:55;16.63;;;10.53;;
1759;SDS011;877;46.266;20.062;2022-11-12T12:26:02;20.83;;;11.00;;
1759;SDS011;877;46.266;20.062;2022-11-12T12:28:39;21.73;;;10.07;;
1759;SDS011;877;46.266;20.062;2022-11-12T12:31:11;21.83;;;10.90;;
1759;SDS011;877;46.266;20.062;2022-11-12T12:39:16;15.13;;;8.17;;
1759;SDS011;877;46.266;20.062;2022-11-12T12:41:55;17.57;;;11.83;;
1759;SDS011;877;46.266;20.062;2022-11-12T12:44:26;29.87;;;13.20;;
1759;SDS011;877;46.266;20.062;2022-11-12T12:47:16;27.63;;;14.73;;
1759;SDS011;877;46.266;20.062;2022-11-12T12:52:19;41.93;;;23.30;;
1759;SDS011;877;46.266;20.062;2022-11-12T13:02:57;16.23;;;9.87;;
1759;SDS011;877;46.266;20.062;2022-11-12T13:05:26;16.07;;;9.40;;
1759;SDS011;877;46.266;20.062;2022-11-12T13:07:53;12.60;;;8.63;;
1759;SDS011;877;46.266;20.062;2022-11-12T13:21:09;18.33;;;9.63;;
1759;SDS011;877;46.266;20.062;2022-11-12T13:23:57;14.23;;;9.00;;
1759;SDS011;877;46.266;20.062;2022-11-12T13:34:43;22.30;;;10.70;;
1759;SDS011;877;46.266;20.062;2022-11-12T13:37:19;15.97;;;8.87;;
1759;SDS011;877;46.266;20.062;2022-11-12T13:40:01;19.00;;;10.40;;
1759;SDS011;877;46.266;20.062;2022-11-12T13:42:39;19.10;;;10.23;;
1759;SDS011;877;46.266;20.062;2022-11-12T13:45:13;14.77;;;8.73;;
1759;SDS011;877;46.266;20.062;2022-11-12T13:47:55;15.73;;;8.80;;
1759;SDS011;877;46.266;20.062;2022-11-12T13:50:22;13.70;;;9.50;;
1759;SDS011;877;46.266;20.062;2022-11-12T13:52:50;11.90;;;9.20;;
1759;SDS011;877;46.266;20.062;2022-11-12T13:55:20;18.23;;;9.53;;
1759;SDS011;877;46.266;20.062;2022-11-12T13:58:00;14.07;;;8.77;;
1759;SDS011;877;46.266;20.062;2022-11-12T14:03:04;16.57;;;9.27;;
1759;SDS011;877;46.266;20.062;2022-11-12T14:05:45;14.80;;;9.03;;
1759;SDS011;877;46.266;20.062;2022-11-12T14:16:33;15.60;;;9.60;;
1759;SDS011;877;46.266;20.062;2022-11-12T14:19:25;13.23;;;9.27;;
1759;SDS011;877;46.266;20.062;2022-11-12T14:24:40;14.03;;;9.07;;
1759;SDS011;877;46.266;20.062;2022-11-12T14:27:21;17.07;;;10.20;;
1759;SDS011;877;46.266;20.062;2022-11-12T14:32:41;15.90;;;10.80;;
1759;SDS011;877;46.266;20.062;2022-11-12T14:40:52;18.90;;;10.63;;
1759;SDS011;877;46.266;20.062;2022-11-12T14:43:21;20.80;;;11.77;;
1759;SDS011;877;46.266;20.062;2022-11-12T14:49:02;22.47;;;12.27;;
1759;SDS011;877;46.266;20.062;2022-11-12T14:51:31;27.43;;;15.50;;
1759;SDS011;877;46.266;20.062;2022-11-12T14:54:03;21.30;;;13.60;;
1759;SDS011;877;46.266;20.062;2022-11-12T14:56:46;21.47;;;13.50;;
1759;SDS011;877;46.266;20.062;2022-11-12T14:59:16;23.80;;;14.30;;
1759;SDS011;877;46.266;20.062;2022-11-12T15:16:08;27.33;;;14.80;;
1759;SDS011;877;46.266;20.062;2022-11-12T15:18:35;22.93;;;14.80;;
1759;SDS011;877;46.266;20.062;2022-11-12T15:23:51;24.13;;;14.50;;
1759;SDS011;877;46.266;20.062;2022-11-12T15:26:32;24.23;;;15.17;;
1759;SDS011;877;46.266;20.062;2022-11-12T15:29:43;20.90;;;14.00;;
1759;SDS011;877;46.266;20.062;2022-11-12T15:31:59;23.73;;;14.53;;
1759;SDS011;877;46.266;20.062;2022-11-12T15:37:07;28.60;;;15.03;;
1759;SDS011;877;46.266;20.062;2022-11-12T15:39:47;25.73;;;15.90;;
1759;SDS011;877;46.266;20.062;2022-11-12T15:47:46;24.80;;;15.70;;
1759;SDS011;877;46.266;20.062;2022-11-12T15:50:14;26.60;;;18.30;;
1759;SDS011;877;46.266;20.062;2022-11-12T15:52:42;28.73;;;15.43;;
1759;SDS011;877;46.266;20.062;2022-11-12T15:55:10;24.77;;;16.70;;
1759;SDS011;877;46.266;20.062;2022-11-12T16:08:07;24.93;;;17.97;;
1759;SDS011;877;46.266;20.062;2022-11-12T16:10:36;25.90;;;18.03;;
1759;SDS011;877;46.266;20.062;2022-11-12T16:15:36;25.03;;;16.73;;
1759;SDS011;877;46.266;20.062;2022-11-12T16:20:33;28.60;;;18.90;;
1759;SDS011;877;46.266;20.062;2022-11-12T16:23:10;26.50;;;18.83;;
1759;SDS011;877;46.266;20.062;2022-11-12T16:28:20;28.37;;;18.43;;
1759;SDS011;877;46.266;20.062;2022-11-12T16:30:47;24.27;;;17.43;;
1759;SDS011;877;46.266;20.062;2022-11-12T16:33:16;37.93;;;19.47;;
1759;SDS011;877;46.266;20.062;2022-11-12T16:35:43;27.60;;;19.53;;
1759;SDS011;877;46.266;20.062;2022-11-12T16:38:14;32.93;;;20.27;;
1759;SDS011;877;46.266;20.062;2022-11-12T16:40:40;33.37;;;19.30;;
1759;SDS011;877;46.266;20.062;2022-11-12T16:43:17;31.73;;;19.90;;
1759;SDS011;877;46.266;20.062;2022-11-12T16:45:47;46.63;;;26.30;;
1759;SDS011;877;46.266;20.062;2022-11-12T16:48:18;36.80;;;24.00;;
1759;SDS011;877;46.266;20.062;2022-11-12T16:50:51;26.17;;;20.13;;
1759;SDS011;877;46.266;20.062;2022-11-12T16:53:17;89.43;;;56.70;;
1759;SDS011;877;46.266;20.062;2022-11-12T16:55:44;106.20;;;75.83;;
1759;SDS011;877;46.266;20.062;2022-11-12T16:58:20;35.77;;;23.70;;
1759;SDS011;877;46.266;20.062;2022-11-12T17:03:25;36.63;;;22.80;;
1759;SDS011;877;46.266;20.062;2022-11-12T17:05:53;39.93;;;20.60;;
1759;SDS011;877;46.266;20.062;2022-11-12T17:16:09;28.57;;;18.10;;
1759;SDS011;877;46.266;20.062;2022-11-12T17:18:37;27.80;;;18.63;;
1759;SDS011;877;46.266;20.062;2022-11-12T17:21:19;31.70;;;18.60;;
1759;SDS011;877;46.266;20.062;2022-11-12T17:23:48;28.93;;;17.43;;
1759;SDS011;877;46.266;20.062;2022-11-12T17:26:26;26.93;;;17.23;;
1759;SDS011;877;46.266;20.062;2022-11-12T17:28:58;33.20;;;20.13;;
1759;SDS011;877;46.266;20.062;2022-11-12T17:31:25;30.33;;;21.23;;
1759;SDS011;877;46.266;20.062;2022-11-12T17:33:52;36.77;;;23.77;;
1759;SDS011;877;46.266;20.062;2022-11-12T17:36:21;37.90;;;23.80;;
1759;SDS011;877;46.266;20.062;2022-11-12T17:41:18;63.77;;;40.10;;
1759;SDS011;877;46.266;20.062;2022-11-12T17:43:44;53.17;;;33.60;;
1759;SDS011;877;46.266;20.062;2022-11-12T17:46:16;58.97;;;37.77;;
1759;SDS011;877;46.266;20.062;2022-11-12T17:48:43;61.60;;;36.30;;
1759;SDS011;877;46.266;20.062;2022-11-12T17:51:11;51.67;;;32.20;;
1759;SDS011;877;46.266;20.062;2022-11-12T17:53:39;46.37;;;32.53;;
1759;SDS011;877;46.266;20.062;2022-11-12T17:56:08;50.03;;;32.83;;
1759;SDS011;877;46.266;20.062;2022-11-12T17:58:40;58.80;;;35.77;;
1759;SDS011;877;46.266;20.062;2022-11-12T18:01:12;64.33;;;38.03;;
1759;SDS011;877;46.266;20.062;2022-11-12T18:03:41;55.27;;;37.87;;
1759;SDS011;877;46.266;20.062;2022-11-12T18:06:18;61.77;;;38.60;;
1759;SDS011;877;46.266;20.062;2022-11-12T18:08:45;65.70;;;41.60;;
1759;SDS011;877;46.266;20.062;2022-11-12T18:11:13;69.20;;;40.00;;
1759;SDS011;877;46.266;20.062;2022-11-12T18:13:41;60.27;;;41.00;;
1759;SDS011;877;46.266;20.062;2022-11-12T18:16:20;54.93;;;39.27;;
1759;SDS011;877;46.266;20.062;2022-11-12T18:18:47;66.80;;;40.90;;
1759;SDS011;877;46.266;20.062;2022-11-12T18:21:15;62.93;;;41.53;;
1759;SDS011;877;46.266;20.062;2022-11-12T18:26:18;73.23;;;43.67;;
1759;SDS011;877;46.266;20.062;2022-11-12T18:28:54;65.83;;;42.00;;
1759;SDS011;877;46.266;20.062;2022-11-12T18:31:22;67.93;;;42.50;;
1759;SDS011;877;46.266;20.062;2022-11-12T18:33:56;74.00;;;45.43;;
1759;SDS011;877;46.266;20.062;2022-11-12T18:36:24;65.73;;;42.13;;
1759;SDS011;877;46.266;20.062;2022-11-12T18:38:52;63.53;;;41.80;;
1759;SDS011;877;46.266;20.062;2022-11-12T18:41:23;63.40;;;42.73;;
1759;SDS011;877;46.266;20.062;2022-11-12T18:44:01;72.87;;;43.20;;
1759;SDS011;877;46.266;20.062;2022-11-12T18:46:28;69.80;;;44.40;;
1759;SDS011;877;46.266;20.062;2022-11-12T18:49:01;69.33;;;43.87;;
1759;SDS011;877;46.266;20.062;2022-11-12T18:51:27;70.83;;;43.30;;
1759;SDS011;877;46.266;20.062;2022-11-12T18:56:41;71.00;;;44.80;;
1759;SDS011;877;46.266;20.062;2022-11-12T18:59:08;64.22;;;41.75;;
1759;SDS011;877;46.266;20.062;2022-11-12T19:01:37;66.87;;;41.93;;
1759;SDS011;877;46.266;20.062;2022-11-12T19:04:13;75.63;;;44.90;;
1759;SDS011;877;46.266;20.062;2022-11-12T19:06:40;62.70;;;40.43;;
1759;SDS011;877;46.266;20.062;2022-11-12T19:09:22;72.30;;;43.90;;
1759;SDS011;877;46.266;20.062;2022-11-12T19:11:58;69.60;;;42.33;;
1759;SDS011;877;46.266;20.062;2022-11-12T19:14:28;73.80;;;44.43;;
1759;SDS011;877;46.266;20.062;2022-11-12T19:17:00;75.20;;;45.50;;
1759;SDS011;877;46.266;20.062;2022-11-12T19:19:28;72.13;;;43.70;;
1759;SDS011;877;46.266;20.062;2022-11-12T19:22:01;80.43;;;44.70;;
1759;SDS011;877;46.266;20.062;2022-11-12T19:27:02;67.40;;;43.33;;
1759;SDS011;877;46.266;20.062;2022-11-12T19:32:04;70.20;;;41.90;;
1759;SDS011;877;46.266;20.062;2022-11-12T19:34:35;57.53;;;38.97;;
1759;SDS011;877;46.266;20.062;2022-11-12T19:37:03;49.70;;;33.42;;
1759;SDS011;877;46.266;20.062;2022-11-12T19:39:31;91.95;;;49.67;;
1759;SDS011;877;46.266;20.062;2022-11-12T19:42:08;80.60;;;48.17;;
1759;SDS011;877;46.266;20.062;2022-11-12T19:44:34;77.28;;;45.42;;
1759;SDS011;877;46.266;20.062;2022-11-12T19:47:05;140.95;;;63.75;;
1759;SDS011;877;46.266;20.062;2022-11-12T19:52:09;92.50;;;49.90;;
1759;SDS011;877;46.266;20.062;2022-11-12T19:54:35;82.03;;;50.87;;
1759;SDS011;877;46.266;20.062;2022-11-12T19:57:01;74.60;;;46.35;;
1759;SDS011;877;46.266;20.062;2022-11-12T19:59:30;89.20;;;51.58;;
1759;SDS011;877;46.266;20.062;2022-11-12T20:02:05;84.53;;;48.58;;
1759;SDS011;877;46.266;20.062;2022-11-12T20:04:36;75.45;;;44.17;;
1759;SDS011;877;46.266;20.062;2022-11-12T20:07:10;64.75;;;38.75;;
1759;SDS011;877;46.266;20.062;2022-11-12T20:12:06;68.90;;;41.97;;
1759;SDS011;877;46.266;20.062;2022-11-12T20:14:35;61.22;;;38.95;;
1759;SDS011;877;46.266;20.062;2022-11-12T20:17:02;67.50;;;41.60;;
1759;SDS011;877;46.266;20.062;2022-11-12T20:19:36;58.35;;;39.13;;
1759;SDS011;877;46.266;20.062;2022-11-12T20:22:02;56.97;;;38.50;;
1759;SDS011;877;46.266;20.062;2022-11-12T20:24:37;62.43;;;36.80;;
1759;SDS011;877;46.266;20.062;2022-11-12T20:29:46;63.42;;;38.30;;
1759;SDS011;877;46.266;20.062;2022-11-12T20:34:48;65.30;;;39.42;;
1759;SDS011;877;46.266;20.062;2022-11-12T20:37:18;65.15;;;41.28;;
1759;SDS011;877;46.266;20.062;2022-11-12T20:39:45;84.60;;;47.42;;
1759;SDS011;877;46.266;20.062;2022-11-12T20:42:11;74.55;;;46.25;;
1759;SDS011;877;46.266;20.062;2022-11-12T20:44:38;74.82;;;45.65;;
1759;SDS011;877;46.266;20.062;2022-11-12T20:49:36;86.32;;;51.42;;
1759;SDS011;877;46.266;20.062;2022-11-12T20:52:09;84.50;;;46.05;;
1759;SDS011;877;46.266;20.062;2022-11-12T20:54:35;66.35;;;42.47;;
1759;SDS011;877;46.266;20.062;2022-11-12T20:59:54;66.90;;;42.60;;
1759;SDS011;877;46.266;20.062;2022-11-12T21:04:53;66.78;;;41.72;;
1759;SDS011;877;46.266;20.062;2022-11-12T21:07:30;76.20;;;42.88;;
1759;SDS011;877;46.266;20.062;2022-11-12T21:09:58;65.70;;;41.90;;
1759;SDS011;877;46.266;20.062;2022-11-12T21:12:34;67.13;;;42.22;;
1759;SDS011;877;46.266;20.062;2022-11-12T21:17:39;62.33;;;40.25;;
1759;SDS011;877;46.266;20.062;2022-11-12T21:26:00;64.47;;;37.63;;
1759;SDS011;877;46.266;20.062;2022-11-12T21:28:35;58.83;;;38.72;;
1759;SDS011;877;46.266;20.062;2022-11-12T21:33:35;65.53;;;37.85;;
1759;SDS011;877;46.266;20.062;2022-11-12T21:38:33;59.63;;;34.78;;
1759;SDS011;877;46.266;20.062;2022-11-12T21:41:05;53.75;;;32.47;;
1759;SDS011;877;46.266;20.062;2022-11-12T21:43:35;50.60;;;31.13;;